sensor_id;sensor_type;location;lat;lon;timestamp;temperature;humidity
67131;HTU21D;54051;53.464;49.532;2023-06-22T00:00:13;13.32;57.91
67131;HTU21D;54051;53.464;49.532;2023-06-22T00:02:39;13.29;58.03
67131;HTU21D;54051;53.464;49.532;2023-06-22T00:05:06;13.27;58.05
67131;HTU21D;54051;53.464;49.532;2023-06-22T00:07:36;13.26;58.12
67131;HTU21D;54051;53.464;49.532;2023-06-22T00:10:02;13.24;58.06
67131;HTU21D;54051;53.464;49.532;2023-06-22T00:12:28;13.21;58.22
67131;HTU21D;54051;53.464;49.532;2023-06-22T00:14:55;13.19;58.48
67131;HTU21D;54051;53.464;49.532;2023-06-22T00:17:21;13.22;58.45
67131;HTU21D;54051;53.464;49.532;2023-06-22T00:19:48;13.22;58.36
67131;HTU21D;54051;53.464;49.532;2023-06-22T00:22:19;13.19;58.65
67131;HTU21D;54051;53.464;49.532;2023-06-22T00:24:55;13.20;58.49
67131;HTU21D;54051;53.464;49.532;2023-06-22T00:27:21;13.24;58.42
67131;HTU21D;54051;53.464;49.532;2023-06-22T00:29:48;13.24;58.45
67131;HTU21D;54051;53.464;49.532;2023-06-22T00:32:14;13.24;58.54
67131;HTU21D;54051;53.464;49.532;2023-06-22T00:34:40;13.26;58.48
67131;HTU21D;54051;53.464;49.532;2023-06-22T00:37:06;13.30;58.44
67131;HTU21D;54051;53.464;49.532;2023-06-22T00:39:33;13.30;58.45
67131;HTU21D;54051;53.464;49.532;2023-06-22T00:42:00;13.31;58.56
67131;HTU21D;54051;53.464;49.532;2023-06-22T00:44:26;13.31;58.62
67131;HTU21D;54051;53.464;49.532;2023-06-22T00:46:53;13.32;58.56
67131;HTU21D;54051;53.464;49.532;2023-06-22T00:49:19;13.32;58.60
67131;HTU21D;54051;53.464;49.532;2023-06-22T00:51:46;13.32;58.59
67131;HTU21D;54051;53.464;49.532;2023-06-22T00:54:13;13.32;58.64
67131;HTU21D;54051;53.464;49.532;2023-06-22T00:56:41;13.36;58.78
67131;HTU21D;54051;53.464;49.532;2023-06-22T00:59:08;13.39;58.52
67131;HTU21D;54051;53.464;49.532;2023-06-22T01:01:38;13.41;58.45
67131;HTU21D;54051;53.464;49.532;2023-06-22T01:04:07;13.43;58.56
67131;HTU21D;54051;53.464;49.532;2023-06-22T01:06:40;13.44;58.64
67131;HTU21D;54051;53.464;49.532;2023-06-22T01:09:21;13.51;58.60
67131;HTU21D;54051;53.464;49.532;2023-06-22T01:11:57;13.62;58.35
67131;HTU21D;54051;53.464;49.532;2023-06-22T01:17:17;13.68;58.00
67131;HTU21D;54051;53.464;49.532;2023-06-22T01:22:28;13.68;58.49
67131;HTU21D;54051;53.464;49.532;2023-06-22T01:28:03;13.75;57.80
67131;HTU21D;54051;53.464;49.532;2023-06-22T01:30:31;13.86;57.74
67131;HTU21D;54051;53.464;49.532;2023-06-22T01:32:59;13.99;57.33
67131;HTU21D;54051;53.464;49.532;2023-06-22T01:35:30;14.01;57.44
67131;HTU21D;54051;53.464;49.532;2023-06-22T01:37:57;14.06;57.32
67131;HTU21D;54051;53.464;49.532;2023-06-22T01:40:23;14.15;57.23
67131;HTU21D;54051;53.464;49.532;2023-06-22T01:42:50;14.20;57.06
67131;HTU21D;54051;53.464;49.532;2023-06-22T01:45:18;14.34;57.10
67131;HTU21D;54051;53.464;49.532;2023-06-22T01:47:44;14.38;57.22
67131;HTU21D;54051;53.464;49.532;2023-06-22T01:50:11;14.45;57.38
67131;HTU21D;54051;53.464;49.532;2023-06-22T01:52:38;14.57;57.00
67131;HTU21D;54051;53.464;49.532;2023-06-22T01:55:04;14.60;57.03
67131;HTU21D;54051;53.464;49.532;2023-06-22T01:57:32;14.74;56.86
67131;HTU21D;54051;53.464;49.532;2023-06-22T02:00:08;14.83;56.73
67131;HTU21D;54051;53.464;49.532;2023-06-22T02:02:45;14.93;56.13
67131;HTU21D;54051;53.464;49.532;2023-06-22T02:05:16;14.95;55.87
67131;HTU21D;54051;53.464;49.532;2023-06-22T02:07:51;15.01;56.16
67131;HTU21D;54051;53.464;49.532;2023-06-22T02:10:20;15.12;55.00
67131;HTU21D;54051;53.464;49.532;2023-06-22T02:12:47;15.10;55.20
67131;HTU21D;54051;53.464;49.532;2023-06-22T02:15:15;15.08;55.29
67131;HTU21D;54051;53.464;49.532;2023-06-22T02:17:42;15.07;55.70
67131;HTU21D;54051;53.464;49.532;2023-06-22T02:20:14;15.07;55.45
67131;HTU21D;54051;53.464;49.532;2023-06-22T02:22:41;15.03;55.74
67131;HTU21D;54051;53.464;49.532;2023-06-22T02:25:08;15.00;55.64
67131;HTU21D;54051;53.464;49.532;2023-06-22T02:27:34;15.06;55.43
67131;HTU21D;54051;53.464;49.532;2023-06-22T02:30:00;15.06;55.61
67131;HTU21D;54051;53.464;49.532;2023-06-22T02:32:27;14.99;55.58
67131;HTU21D;54051;53.464;49.532;2023-06-22T02:34:53;14.94;55.47
67131;HTU21D;54051;53.464;49.532;2023-06-22T02:37:19;14.94;55.47
67131;HTU21D;54051;53.464;49.532;2023-06-22T02:39:46;14.97;55.65
67131;HTU21D;54051;53.464;49.532;2023-06-22T02:42:12;15.01;55.38
67131;HTU21D;54051;53.464;49.532;2023-06-22T02:44:39;15.11;55.26
67131;HTU21D;54051;53.464;49.532;2023-06-22T02:47:05;15.19;54.62
67131;HTU21D;54051;53.464;49.532;2023-06-22T02:49:31;15.30;54.34
67131;HTU21D;54051;53.464;49.532;2023-06-22T02:51:58;15.54;54.20
67131;HTU21D;54051;53.464;49.532;2023-06-22T02:54:24;15.77;53.10
67131;HTU21D;54051;53.464;49.532;2023-06-22T02:56:51;15.92;53.01
67131;HTU21D;54051;53.464;49.532;2023-06-22T02:59:17;16.01;52.81
67131;HTU21D;54051;53.464;49.532;2023-06-22T03:01:43;16.31;51.27
67131;HTU21D;54051;53.464;49.532;2023-06-22T03:04:10;16.61;50.38
67131;HTU21D;54051;53.464;49.532;2023-06-22T03:06:36;17.10;48.69
67131;HTU21D;54051;53.464;49.532;2023-06-22T03:09:04;17.67;47.21
67131;HTU21D;54051;53.464;49.532;2023-06-22T03:11:32;18.24;45.74
67131;HTU21D;54051;53.464;49.532;2023-06-22T03:13:58;18.58;44.54
67131;HTU21D;54051;53.464;49.532;2023-06-22T03:16:25;18.87;43.84
67131;HTU21D;54051;53.464;49.532;2023-06-22T03:18:52;19.26;43.19
67131;HTU21D;54051;53.464;49.532;2023-06-22T03:21:28;19.39;42.29
67131;HTU21D;54051;53.464;49.532;2023-06-22T03:23:55;19.43;42.14
67131;HTU21D;54051;53.464;49.532;2023-06-22T03:26:21;19.25;40.94
67131;HTU21D;54051;53.464;49.532;2023-06-22T03:28:47;18.81;42.18
67131;HTU21D;54051;53.464;49.532;2023-06-22T03:31:13;18.68;43.22
67131;HTU21D;54051;53.464;49.532;2023-06-22T03:33:40;18.36;43.84
67131;HTU21D;54051;53.464;49.532;2023-06-22T03:36:06;18.12;44.98
67131;HTU21D;54051;53.464;49.532;2023-06-22T03:38:33;17.97;45.26
67131;HTU21D;54051;53.464;49.532;2023-06-22T03:40:59;17.85;45.32
67131;HTU21D;54051;53.464;49.532;2023-06-22T03:43:26;17.98;45.45
67131;HTU21D;54051;53.464;49.532;2023-06-22T03:45:52;18.05;44.38
67131;HTU21D;54051;53.464;49.532;2023-06-22T03:48:18;18.15;44.74
67131;HTU21D;54051;53.464;49.532;2023-06-22T03:50:45;18.65;43.45
67131;HTU21D;54051;53.464;49.532;2023-06-22T03:53:11;19.00;42.41
67131;HTU21D;54051;53.464;49.532;2023-06-22T03:55:47;19.38;41.45
67131;HTU21D;54051;53.464;49.532;2023-06-22T03:58:14;19.67;40.77
67131;HTU21D;54051;53.464;49.532;2023-06-22T04:00:41;19.43;40.62
67131;HTU21D;54051;53.464;49.532;2023-06-22T04:03:07;19.35;41.35
67131;HTU21D;54051;53.464;49.532;2023-06-22T04:05:33;19.39;41.79
67131;HTU21D;54051;53.464;49.532;2023-06-22T04:08:00;19.53;40.33
67131;HTU21D;54051;53.464;49.532;2023-06-22T04:10:26;19.68;40.07
67131;HTU21D;54051;53.464;49.532;2023-06-22T04:12:53;19.94;39.37
67131;HTU21D;54051;53.464;49.532;2023-06-22T04:15:20;20.51;38.21
67131;HTU21D;54051;53.464;49.532;2023-06-22T04:17:46;20.71;38.22
67131;HTU21D;54051;53.464;49.532;2023-06-22T04:20:12;21.10;37.41
67131;HTU21D;54051;53.464;49.532;2023-06-22T04:22:38;21.59;36.37
67131;HTU21D;54051;53.464;49.532;2023-06-22T04:25:05;21.54;35.84
67131;HTU21D;54051;53.464;49.532;2023-06-22T04:27:34;21.59;35.18
67131;HTU21D;54051;53.464;49.532;2023-06-22T04:30:07;22.56;33.89
67131;HTU21D;54051;53.464;49.532;2023-06-22T04:32:34;23.08;31.57
67131;HTU21D;54051;53.464;49.532;2023-06-22T04:35:05;22.91;32.80
67131;HTU21D;54051;53.464;49.532;2023-06-22T04:37:33;22.87;34.33
67131;HTU21D;54051;53.464;49.532;2023-06-22T04:40:00;22.63;35.15
67131;HTU21D;54051;53.464;49.532;2023-06-22T04:42:28;22.48;36.02
67131;HTU21D;54051;53.464;49.532;2023-06-22T04:44:54;22.17;36.06
67131;HTU21D;54051;53.464;49.532;2023-06-22T04:47:20;20.85;39.45
67131;HTU21D;54051;53.464;49.532;2023-06-22T04:49:47;20.71;39.61
67131;HTU21D;54051;53.464;49.532;2023-06-22T04:52:13;20.22;39.85
67131;HTU21D;54051;53.464;49.532;2023-06-22T04:54:43;20.77;38.77
67131;HTU21D;54051;53.464;49.532;2023-06-22T04:57:14;21.67;36.35
67131;HTU21D;54051;53.464;49.532;2023-06-22T04:59:41;21.91;35.21
67131;HTU21D;54051;53.464;49.532;2023-06-22T05:02:08;22.32;35.02
67131;HTU21D;54051;53.464;49.532;2023-06-22T05:04:34;23.82;31.67
67131;HTU21D;54051;53.464;49.532;2023-06-22T05:07:04;24.77;29.26
67131;HTU21D;54051;53.464;49.532;2023-06-22T05:09:31;26.04;27.07
67131;HTU21D;54051;53.464;49.532;2023-06-22T05:11:59;26.82;24.56
67131;HTU21D;54051;53.464;49.532;2023-06-22T05:14:29;26.17;25.24
67131;HTU21D;54051;53.464;49.532;2023-06-22T05:16:56;24.98;27.79
67131;HTU21D;54051;53.464;49.532;2023-06-22T05:19:25;24.51;28.45
67131;HTU21D;54051;53.464;49.532;2023-06-22T05:21:57;23.44;30.19
67131;HTU21D;54051;53.464;49.532;2023-06-22T05:24:23;23.24;30.61
67131;HTU21D;54051;53.464;49.532;2023-06-22T05:26:50;22.57;30.89
67131;HTU21D;54051;53.464;49.532;2023-06-22T05:29:16;22.06;32.22
67131;HTU21D;54051;53.464;49.532;2023-06-22T05:31:42;21.07;33.17
67131;HTU21D;54051;53.464;49.532;2023-06-22T05:34:08;20.48;35.39
67131;HTU21D;54051;53.464;49.532;2023-06-22T05:36:35;20.26;35.23
67131;HTU21D;54051;53.464;49.532;2023-06-22T05:39:11;20.10;36.17
67131;HTU21D;54051;53.464;49.532;2023-06-22T05:41:38;20.03;36.38
67131;HTU21D;54051;53.464;49.532;2023-06-22T05:44:04;20.12;36.29
67131;HTU21D;54051;53.464;49.532;2023-06-22T05:46:31;20.19;36.29
67131;HTU21D;54051;53.464;49.532;2023-06-22T05:48:57;20.12;36.52
67131;HTU21D;54051;53.464;49.532;2023-06-22T05:51:24;19.99;37.91
67131;HTU21D;54051;53.464;49.532;2023-06-22T05:53:50;19.81;38.01
67131;HTU21D;54051;53.464;49.532;2023-06-22T05:56:17;19.73;38.38
67131;HTU21D;54051;53.464;49.532;2023-06-22T05:58:45;19.85;36.50
67131;HTU21D;54051;53.464;49.532;2023-06-22T06:01:11;19.91;35.32
67131;HTU21D;54051;53.464;49.532;2023-06-22T06:03:38;19.99;35.66
67131;HTU21D;54051;53.464;49.532;2023-06-22T06:06:07;20.29;34.83
67131;HTU21D;54051;53.464;49.532;2023-06-22T06:08:33;21.31;33.99
67131;HTU21D;54051;53.464;49.532;2023-06-22T06:11:00;22.73;31.80
67131;HTU21D;54051;53.464;49.532;2023-06-22T06:13:26;22.73;30.26
67131;HTU21D;54051;53.464;49.532;2023-06-22T06:15:53;23.65;27.66
67131;HTU21D;54051;53.464;49.532;2023-06-22T06:18:21;24.86;26.39
67131;HTU21D;54051;53.464;49.532;2023-06-22T06:20:47;25.90;23.42
67131;HTU21D;54051;53.464;49.532;2023-06-22T06:23:13;27.75;21.31
67131;HTU21D;54051;53.464;49.532;2023-06-22T06:25:40;31.35;16.32
67131;HTU21D;54051;53.464;49.532;2023-06-22T06:28:06;33.85;12.23
67131;HTU21D;54051;53.464;49.532;2023-06-22T06:30:32;36.21;10.00
67131;HTU21D;54051;53.464;49.532;2023-06-22T06:32:59;34.85;10.70
67131;HTU21D;54051;53.464;49.532;2023-06-22T06:35:25;30.04;16.25
67131;HTU21D;54051;53.464;49.532;2023-06-22T06:37:52;26.48;20.63
67131;HTU21D;54051;53.464;49.532;2023-06-22T06:40:18;24.00;25.17
67131;HTU21D;54051;53.464;49.532;2023-06-22T06:42:48;22.85;28.81
67131;HTU21D;54051;53.464;49.532;2023-06-22T06:45:20;22.98;27.83
67131;HTU21D;54051;53.464;49.532;2023-06-22T06:47:49;22.25;29.73
67131;HTU21D;54051;53.464;49.532;2023-06-22T06:50:16;21.60;31.09
67131;HTU21D;54051;53.464;49.532;2023-06-22T06:52:42;21.46;31.76
67131;HTU21D;54051;53.464;49.532;2023-06-22T06:55:09;21.57;31.61
67131;HTU21D;54051;53.464;49.532;2023-06-22T06:57:39;21.75;31.21
67131;HTU21D;54051;53.464;49.532;2023-06-22T07:00:07;21.57;30.33
67131;HTU21D;54051;53.464;49.532;2023-06-22T07:02:40;21.37;31.87
67131;HTU21D;54051;53.464;49.532;2023-06-22T07:05:07;21.40;31.75
67131;HTU21D;54051;53.464;49.532;2023-06-22T07:07:34;21.30;30.68
67131;HTU21D;54051;53.464;49.532;2023-06-22T07:10:00;20.78;32.28
67131;HTU21D;54051;53.464;49.532;2023-06-22T07:12:27;20.80;32.60
67131;HTU21D;54051;53.464;49.532;2023-06-22T07:14:53;20.72;32.63
67131;HTU21D;54051;53.464;49.532;2023-06-22T07:17:19;20.65;34.25
67131;HTU21D;54051;53.464;49.532;2023-06-22T07:19:45;20.72;32.07
67131;HTU21D;54051;53.464;49.532;2023-06-22T07:22:12;21.50;30.10
67131;HTU21D;54051;53.464;49.532;2023-06-22T07:24:38;25.73;23.69
67131;HTU21D;54051;53.464;49.532;2023-06-22T07:27:04;26.26;21.53
67131;HTU21D;54051;53.464;49.532;2023-06-22T07:29:32;24.57;24.33
67131;HTU21D;54051;53.464;49.532;2023-06-22T07:31:59;23.15;25.17
67131;HTU21D;54051;53.464;49.532;2023-06-22T07:34:26;21.94;28.26
67131;HTU21D;54051;53.464;49.532;2023-06-22T07:36:53;21.11;30.20
67131;HTU21D;54051;53.464;49.532;2023-06-22T07:39:19;20.72;32.17
67131;HTU21D;54051;53.464;49.532;2023-06-22T07:41:51;20.61;32.88
67131;HTU21D;54051;53.464;49.532;2023-06-22T07:44:18;20.59;33.26
67131;HTU21D;54051;53.464;49.532;2023-06-22T07:46:44;20.56;32.51
67131;HTU21D;54051;53.464;49.532;2023-06-22T07:49:11;20.53;32.84
67131;HTU21D;54051;53.464;49.532;2023-06-22T07:51:38;20.72;33.32
67131;HTU21D;54051;53.464;49.532;2023-06-22T07:54:04;20.77;34.43
67131;HTU21D;54051;53.464;49.532;2023-06-22T07:56:30;20.58;34.89
67131;HTU21D;54051;53.464;49.532;2023-06-22T07:58:57;20.68;35.54
67131;HTU21D;54051;53.464;49.532;2023-06-22T08:01:25;21.17;34.85
67131;HTU21D;54051;53.464;49.532;2023-06-22T08:03:51;21.43;33.61
67131;HTU21D;54051;53.464;49.532;2023-06-22T08:06:18;21.43;33.70
67131;HTU21D;54051;53.464;49.532;2023-06-22T08:08:44;22.01;32.38
67131;HTU21D;54051;53.464;49.532;2023-06-22T08:11:14;22.97;30.51
67131;HTU21D;54051;53.464;49.532;2023-06-22T08:13:41;23.87;28.84
67131;HTU21D;54051;53.464;49.532;2023-06-22T08:16:07;24.14;27.13
67131;HTU21D;54051;53.464;49.532;2023-06-22T08:18:34;24.17;27.33
67131;HTU21D;54051;53.464;49.532;2023-06-22T08:21:00;23.65;27.49
67131;HTU21D;54051;53.464;49.532;2023-06-22T08:23:27;23.10;28.06
67131;HTU21D;54051;53.464;49.532;2023-06-22T08:25:53;22.36;29.61
67131;HTU21D;54051;53.464;49.532;2023-06-22T08:28:19;22.32;29.16
67131;HTU21D;54051;53.464;49.532;2023-06-22T08:30:45;22.29;28.39
67131;HTU21D;54051;53.464;49.532;2023-06-22T08:33:12;22.04;29.11
67131;HTU21D;54051;53.464;49.532;2023-06-22T08:35:38;21.66;29.49
67131;HTU21D;54051;53.464;49.532;2023-06-22T08:38:05;21.37;29.71
67131;HTU21D;54051;53.464;49.532;2023-06-22T08:40:31;21.14;30.59
67131;HTU21D;54051;53.464;49.532;2023-06-22T08:42:58;21.00;31.58
67131;HTU21D;54051;53.464;49.532;2023-06-22T08:45:24;20.77;32.89
67131;HTU21D;54051;53.464;49.532;2023-06-22T08:47:50;20.40;33.12
67131;HTU21D;54051;53.464;49.532;2023-06-22T08:50:17;20.24;34.00
67131;HTU21D;54051;53.464;49.532;2023-06-22T08:52:43;20.31;32.64
67131;HTU21D;54051;53.464;49.532;2023-06-22T08:55:11;20.29;32.01
67131;HTU21D;54051;53.464;49.532;2023-06-22T08:57:38;20.49;31.45
67131;HTU21D;54051;53.464;49.532;2023-06-22T09:00:08;21.03;31.46
67131;HTU21D;54051;53.464;49.532;2023-06-22T09:02:47;21.36;32.41
67131;HTU21D;54051;53.464;49.532;2023-06-22T09:05:13;21.55;32.37
67131;HTU21D;54051;53.464;49.532;2023-06-22T09:07:40;21.45;31.88
67131;HTU21D;54051;53.464;49.532;2023-06-22T09:10:06;21.59;30.17
67131;HTU21D;54051;53.464;49.532;2023-06-22T09:12:33;21.53;26.15
67131;HTU21D;54051;53.464;49.532;2023-06-22T09:15:00;21.45;26.58
67131;HTU21D;54051;53.464;49.532;2023-06-22T09:17:27;21.82;25.81
67131;HTU21D;54051;53.464;49.532;2023-06-22T09:19:53;21.99;25.27
67131;HTU21D;54051;53.464;49.532;2023-06-22T09:22:20;22.31;24.59
67131;HTU21D;54051;53.464;49.532;2023-06-22T09:24:46;22.54;26.33
67131;HTU21D;54051;53.464;49.532;2023-06-22T09:27:13;22.90;25.38
67131;HTU21D;54051;53.464;49.532;2023-06-22T09:29:39;23.03;25.06
67131;HTU21D;54051;53.464;49.532;2023-06-22T09:32:06;23.00;24.90
67131;HTU21D;54051;53.464;49.532;2023-06-22T09:34:32;22.29;25.07
67131;HTU21D;54051;53.464;49.532;2023-06-22T09:36:58;21.79;26.41
67131;HTU21D;54051;53.464;49.532;2023-06-22T09:39:26;21.62;27.20
67131;HTU21D;54051;53.464;49.532;2023-06-22T09:41:53;21.64;26.43
67131;HTU21D;54051;53.464;49.532;2023-06-22T09:44:19;21.85;26.48
67131;HTU21D;54051;53.464;49.532;2023-06-22T09:46:45;22.37;26.65
67131;HTU21D;54051;53.464;49.532;2023-06-22T09:49:11;22.57;26.03
67131;HTU21D;54051;53.464;49.532;2023-06-22T09:51:38;22.42;25.94
67131;HTU21D;54051;53.464;49.532;2023-06-22T09:54:04;22.65;24.01
67131;HTU21D;54051;53.464;49.532;2023-06-22T09:56:33;22.76;23.86
67131;HTU21D;54051;53.464;49.532;2023-06-22T09:59:06;22.28;23.43
67131;HTU21D;54051;53.464;49.532;2023-06-22T10:01:35;22.02;24.20
67131;HTU21D;54051;53.464;49.532;2023-06-22T10:04:02;21.96;24.78
67131;HTU21D;54051;53.464;49.532;2023-06-22T10:06:29;21.98;24.81
67131;HTU21D;54051;53.464;49.532;2023-06-22T10:08:55;22.01;25.76
67131;HTU21D;54051;53.464;49.532;2023-06-22T10:11:21;22.26;24.92
67131;HTU21D;54051;53.464;49.532;2023-06-22T10:13:53;22.13;24.49
67131;HTU21D;54051;53.464;49.532;2023-06-22T10:16:19;21.91;24.92
67131;HTU21D;54051;53.464;49.532;2023-06-22T10:18:45;21.75;25.31
67131;HTU21D;54051;53.464;49.532;2023-06-22T10:21:11;21.59;26.26
67131;HTU21D;54051;53.464;49.532;2023-06-22T10:23:37;21.35;26.64
67131;HTU21D;54051;53.464;49.532;2023-06-22T10:26:04;21.18;26.84
67131;HTU21D;54051;53.464;49.532;2023-06-22T10:28:30;21.39;26.80
67131;HTU21D;54051;53.464;49.532;2023-06-22T10:30:57;21.65;27.22
67131;HTU21D;54051;53.464;49.532;2023-06-22T10:33:24;21.79;27.25
67131;HTU21D;54051;53.464;49.532;2023-06-22T10:35:50;21.90;26.52
67131;HTU21D;54051;53.464;49.532;2023-06-22T10:38:16;22.06;26.07
67131;HTU21D;54051;53.464;49.532;2023-06-22T10:40:43;21.81;26.38
67131;HTU21D;54051;53.464;49.532;2023-06-22T10:43:09;21.49;25.78
67131;HTU21D;54051;53.464;49.532;2023-06-22T10:45:35;21.27;25.58
67131;HTU21D;54051;53.464;49.532;2023-06-22T10:48:01;21.31;26.97
67131;HTU21D;54051;53.464;49.532;2023-06-22T10:50:28;21.43;26.07
67131;HTU21D;54051;53.464;49.532;2023-06-22T10:52:55;21.65;25.47
67131;HTU21D;54051;53.464;49.532;2023-06-22T10:55:21;21.68;25.49
67131;HTU21D;54051;53.464;49.532;2023-06-22T10:57:48;21.92;25.89
67131;HTU21D;54051;53.464;49.532;2023-06-22T11:00:14;22.17;25.52
67131;HTU21D;54051;53.464;49.532;2023-06-22T11:02:41;22.44;25.07
67131;HTU21D;54051;53.464;49.532;2023-06-22T11:05:08;22.40;25.79
67131;HTU21D;54051;53.464;49.532;2023-06-22T11:07:34;22.17;27.37
67131;HTU21D;54051;53.464;49.532;2023-06-22T11:10:01;22.26;28.23
67131;HTU21D;54051;53.464;49.532;2023-06-22T11:12:27;22.34;27.91
67131;HTU21D;54051;53.464;49.532;2023-06-22T11:14:53;22.43;27.94
67131;HTU21D;54051;53.464;49.532;2023-06-22T11:17:20;22.49;28.61
67131;HTU21D;54051;53.464;49.532;2023-06-22T11:19:46;23.00;28.12
67131;HTU21D;54051;53.464;49.532;2023-06-22T11:22:12;23.24;27.39
67131;HTU21D;54051;53.464;49.532;2023-06-22T11:24:39;23.03;25.57
67131;HTU21D;54051;53.464;49.532;2023-06-22T11:27:05;22.58;27.30
67131;HTU21D;54051;53.464;49.532;2023-06-22T11:29:32;22.34;27.64
67131;HTU21D;54051;53.464;49.532;2023-06-22T11:31:58;22.06;28.84
67131;HTU21D;54051;53.464;49.532;2023-06-22T11:34:24;22.22;32.15
67131;HTU21D;54051;53.464;49.532;2023-06-22T11:36:51;21.99;34.95
67131;HTU21D;54051;53.464;49.532;2023-06-22T11:39:17;22.42;31.83
67131;HTU21D;54051;53.464;49.532;2023-06-22T11:41:43;22.67;27.64
67131;HTU21D;54051;53.464;49.532;2023-06-22T11:44:09;22.38;28.47
67131;HTU21D;54051;53.464;49.532;2023-06-22T11:46:36;22.75;30.20
67131;HTU21D;54051;53.464;49.532;2023-06-22T11:49:02;22.87;31.29
67131;HTU21D;54051;53.464;49.532;2023-06-22T11:51:29;22.26;33.47
67131;HTU21D;54051;53.464;49.532;2023-06-22T11:53:57;21.88;35.07
67131;HTU21D;54051;53.464;49.532;2023-06-22T11:56:24;21.57;35.17
67131;HTU21D;54051;53.464;49.532;2023-06-22T11:58:51;21.35;35.37
67131;HTU21D;54051;53.464;49.532;2023-06-22T12:01:17;21.27;35.95
67131;HTU21D;54051;53.464;49.532;2023-06-22T12:03:44;20.41;34.48
67131;HTU21D;54051;53.464;49.532;2023-06-22T12:06:10;20.07;36.19
67131;HTU21D;54051;53.464;49.532;2023-06-22T12:08:37;20.39;37.61
67131;HTU21D;54051;53.464;49.532;2023-06-22T12:11:03;20.71;36.16
67131;HTU21D;54051;53.464;49.532;2023-06-22T12:13:29;20.98;36.55
67131;HTU21D;54051;53.464;49.532;2023-06-22T12:15:56;20.99;36.24
67131;HTU21D;54051;53.464;49.532;2023-06-22T12:18:22;20.50;35.04
67131;HTU21D;54051;53.464;49.532;2023-06-22T12:20:48;20.43;30.97
67131;HTU21D;54051;53.464;49.532;2023-06-22T12:23:15;20.31;30.35
67131;HTU21D;54051;53.464;49.532;2023-06-22T12:25:41;20.50;30.29
67131;HTU21D;54051;53.464;49.532;2023-06-22T12:28:08;20.62;30.32
67131;HTU21D;54051;53.464;49.532;2023-06-22T12:30:34;20.85;29.90
67131;HTU21D;54051;53.464;49.532;2023-06-22T12:33:03;21.25;29.65
67131;HTU21D;54051;53.464;49.532;2023-06-22T12:35:29;21.31;29.51
67131;HTU21D;54051;53.464;49.532;2023-06-22T12:37:55;21.38;29.00
67131;HTU21D;54051;53.464;49.532;2023-06-22T12:40:22;21.48;28.55
67131;HTU21D;54051;53.464;49.532;2023-06-22T12:42:54;21.61;30.09
67131;HTU21D;54051;53.464;49.532;2023-06-22T12:45:20;21.85;28.04
67131;HTU21D;54051;53.464;49.532;2023-06-22T12:47:47;21.87;27.68
67131;HTU21D;54051;53.464;49.532;2023-06-22T12:50:21;21.90;27.94
67131;HTU21D;54051;53.464;49.532;2023-06-22T12:52:50;21.63;26.75
67131;HTU21D;54051;53.464;49.532;2023-06-22T12:55:16;21.30;27.60
67131;HTU21D;54051;53.464;49.532;2023-06-22T12:57:50;21.22;27.83
67131;HTU21D;54051;53.464;49.532;2023-06-22T13:00:24;20.92;28.28
67131;HTU21D;54051;53.464;49.532;2023-06-22T13:02:53;20.96;29.06
67131;HTU21D;54051;53.464;49.532;2023-06-22T13:05:20;20.78;29.02
67131;HTU21D;54051;53.464;49.532;2023-06-22T13:07:46;20.57;30.11
67131;HTU21D;54051;53.464;49.532;2023-06-22T13:10:13;20.43;30.23
67131;HTU21D;54051;53.464;49.532;2023-06-22T13:12:39;20.06;32.12
67131;HTU21D;54051;53.464;49.532;2023-06-22T13:15:08;20.17;31.34
67131;HTU21D;54051;53.464;49.532;2023-06-22T13:17:37;20.20;30.78
67131;HTU21D;54051;53.464;49.532;2023-06-22T13:20:05;20.31;30.74
67131;HTU21D;54051;53.464;49.532;2023-06-22T13:22:33;20.24;32.03
67131;HTU21D;54051;53.464;49.532;2023-06-22T13:25:06;20.13;32.25
67131;HTU21D;54051;53.464;49.532;2023-06-22T13:27:33;20.29;31.77
67131;HTU21D;54051;53.464;49.532;2023-06-22T13:30:00;20.54;31.12
67131;HTU21D;54051;53.464;49.532;2023-06-22T13:32:29;20.68;29.53
67131;HTU21D;54051;53.464;49.532;2023-06-22T13:34:55;20.70;27.58
67131;HTU21D;54051;53.464;49.532;2023-06-22T13:37:21;20.59;28.26
67131;HTU21D;54051;53.464;49.532;2023-06-22T13:39:47;20.68;27.75
67131;HTU21D;54051;53.464;49.532;2023-06-22T13:42:14;20.59;28.35
67131;HTU21D;54051;53.464;49.532;2023-06-22T13:44:40;20.66;28.75
67131;HTU21D;54051;53.464;49.532;2023-06-22T13:47:07;20.81;27.75
67131;HTU21D;54051;53.464;49.532;2023-06-22T13:49:34;20.90;27.07
67131;HTU21D;54051;53.464;49.532;2023-06-22T13:52:00;20.88;27.70
67131;HTU21D;54051;53.464;49.532;2023-06-22T13:54:26;20.76;27.82
67131;HTU21D;54051;53.464;49.532;2023-06-22T13:56:53;20.65;28.49
67131;HTU21D;54051;53.464;49.532;2023-06-22T13:59:19;20.49;28.49
67131;HTU21D;54051;53.464;49.532;2023-06-22T14:01:46;20.41;28.57
67131;HTU21D;54051;53.464;49.532;2023-06-22T14:04:13;20.43;29.16
67131;HTU21D;54051;53.464;49.532;2023-06-22T14:06:39;20.56;28.97
67131;HTU21D;54051;53.464;49.532;2023-06-22T14:09:05;20.54;29.11
67131;HTU21D;54051;53.464;49.532;2023-06-22T14:11:32;20.54;29.13
67131;HTU21D;54051;53.464;49.532;2023-06-22T14:13:59;20.43;29.71
67131;HTU21D;54051;53.464;49.532;2023-06-22T14:16:35;20.43;29.29
67131;HTU21D;54051;53.464;49.532;2023-06-22T14:19:02;20.30;28.57
67131;HTU21D;54051;53.464;49.532;2023-06-22T14:21:28;20.03;28.83
67131;HTU21D;54051;53.464;49.532;2023-06-22T14:23:54;19.81;28.66
67131;HTU21D;54051;53.464;49.532;2023-06-22T14:26:23;19.53;29.92
67131;HTU21D;54051;53.464;49.532;2023-06-22T14:28:53;19.60;30.70
67131;HTU21D;54051;53.464;49.532;2023-06-22T14:31:19;19.77;30.48
67131;HTU21D;54051;53.464;49.532;2023-06-22T14:33:47;19.81;30.84
67131;HTU21D;54051;53.464;49.532;2023-06-22T14:36:14;19.69;31.37
67131;HTU21D;54051;53.464;49.532;2023-06-22T14:38:40;19.68;32.19
67131;HTU21D;54051;53.464;49.532;2023-06-22T14:41:06;19.70;31.73
67131;HTU21D;54051;53.464;49.532;2023-06-22T14:43:33;19.56;32.50
67131;HTU21D;54051;53.464;49.532;2023-06-22T14:45:59;19.51;31.70
67131;HTU21D;54051;53.464;49.532;2023-06-22T14:48:25;19.36;31.86
67131;HTU21D;54051;53.464;49.532;2023-06-22T14:50:51;19.47;32.65
67131;HTU21D;54051;53.464;49.532;2023-06-22T14:53:20;19.66;32.52
67131;HTU21D;54051;53.464;49.532;2023-06-22T14:55:46;19.82;32.19
67131;HTU21D;54051;53.464;49.532;2023-06-22T14:58:12;19.75;31.85
67131;HTU21D;54051;53.464;49.532;2023-06-22T15:00:38;19.50;32.39
67131;HTU21D;54051;53.464;49.532;2023-06-22T15:03:07;19.40;32.59
67131;HTU21D;54051;53.464;49.532;2023-06-22T15:05:37;19.28;33.01
67131;HTU21D;54051;53.464;49.532;2023-06-22T15:08:03;19.27;33.52
67131;HTU21D;54051;53.464;49.532;2023-06-22T15:10:29;19.17;34.24